Terminal Aerodrome Forecast
Issued by NWS

Home | Current Version | Previous Version | Text Only | Print | Product List | Glossary On
Versions: 1 2 3 4 5 6 7 8 9 10 11 12 13 14 15 16 17
000
FTUS43 KGRB 260500
TAFATW
TAF
KATW 260531Z 2606/2706 20004KT P6SM SCT025 BKN060
      TEMPO 2606/2610 BKN025
     FM261000 23004KT 5SM BR BKN018 BKN030
     FM261400 25008KT P6SM BKN035=

USA.gov is the U.S. government's official web portal to all federal, state and local government web resources and services.